Terminal Aerodrome Forecast
Issued by NWS Lake Charles, LA

Home | Current Version | Previous Version | Text Only | Print | Product List | Glossary On
Versions: 1 2 3 4 5 6 7 8 9 10 11 12 13 14 15
551
FTUS44 KLCH 221139
TAFLFT
TAF
KLFT 221139Z 2212/2312 17008KT P6SM SCT015 OVC025
     FM221500 16010KT P6SM OVC015
     FM221800 17012G18KT P6SM BKN025
     FM230100 17004KT P6SM OVC015=

USA.gov is the U.S. government's official web portal to all federal, state and local government web resources and services.